KHAFKMRY

Guest
Details From KHAF - HALF MOON BAY
To KMRY - Monterey Peninsula
Flight Number -
Tags generated
Created
Modified
Stats Distance 64 nm / 119 km
Max Altitude 2,000 ft / 610 m
Waypoints 3
Social Downloads 0
Likes 0
Share VATSIM

Download

Looking for another format? Having issues loading an existing format? Contact us
Advertisement - Login to hide

Notes

Basic altitude profile: - Ascent Rate: 2500ft/min - Ascent Speed: 250kts - Cruise Altitude: 35000ft - Cruise Speed: 420kts - Descent Rate: 1500ft/min - Descent Speed: 250kts

Route

KHAF ISIFU KMRY

ID Type Via Altitude Latitude Longitude Leg Dist Tot Dist Heading (true) Name
O KHAF APT - 0 ft / 0 m 37.51343˚ -122.50116˚ - 0 nm - HALF MOON BAY
ISIFU FIX - 2,000 ft / 610 m 36.71747˚ -121.94915˚ 54 nm 54 nm 151° / 151° -
O KMRY APT - 0 ft / 0 m 36.58692˚ -121.84193˚ 9 nm 64 nm 147° / 147° Monterey Peninsula

Altitude Profile

Advertisement - Login to hide

KHAF

Details ICAO KHAF
Name HALF MOON BAY
Region United States
Timezone America/Los_Angeles (UTC-8.0)
Stats Elevation 66 ft / 20 m (AMSL)
Location 37.513435° -122.501163°
Runways 1
Magnetic Variation 13.460° E

METAR

KHAF 121935Z AUTO 01010G15KT 10SM CLR 20/M03 A3023 RMK AO2

Decode

TAF

Not found

Departure Runways

ID Width Length Bearing (true) Bearing (mag) Surface Threshold Offset Overrun Length
12 151 ft / 46 m 5,005 ft / 1,525 m 137.06° 123.60° Asphalt 764 ft / 233 m 0 ft / 0 m
30 151 ft / 46 m 5,005 ft / 1,525 m 317.06° 303.60° Asphalt 764 ft / 233 m 0 ft / 0 m

KMRY

Details ICAO KMRY (MRY)
Name Monterey Peninsula
Region United States
Timezone America/Los_Angeles (UTC-8.0)
Stats Elevation 257 ft / 78 m (AMSL)
Location 36.586916° -121.841927°
Runways 2
Magnetic Variation 13.159° E

METAR

KMRY 121854Z 26005KT 10SM FU CLR 20/M01 A3026 RMK AO2 SLP258 T02001006

Decode

TAF

KMRY 121720Z 1218/1318 VRB04KT P6SM FEW200 FM122000 34004KT P6SM FEW200 FM130200 11004KT P6SM SKC

Decode

Destination Runways

ID Width Length Bearing (true) Bearing (mag) Surface Threshold Offset Overrun Length
10L 59 ft / 18 m 3,508 ft / 1,069 m 112.85° 99.69° Asphalt 0 ft / 0 m 230 ft / 70 m
10R 151 ft / 46 m 7,605 ft / 2,318 m 112.84° 99.68° Asphalt 0 ft / 0 m 174 ft / 53 m
28L 151 ft / 46 m 7,605 ft / 2,318 m 292.85° 279.69° Asphalt 1,001 ft / 305 m 190 ft / 58 m
28R 59 ft / 18 m 3,508 ft / 1,069 m 292.85° 279.69° Asphalt 0 ft / 0 m 0 ft / 0 m

Approach Navaids

Runway Type Ident Frequency Range Bearing (true) Bearing (mag) Slope Elevation
10R Localiser IMRY 110.70 MHz 18 nm / 33 km 112.86° 99.70° - 246 ft / 75 m (AMSL)
10R Glidescope IMRY 110.70 MHz 10 nm / 19 km 112.85° 99.69° 3.00° 162 ft / 49 m (AMSL)
10R DME IMRY 110.70 MHz 18 nm / 33 km - - - 267 ft / 81 m (AMSL)
28L Localiser IMTB 110.70 MHz 18 nm / 33 km 292.84° 279.68° - 127 ft / 39 m (AMSL)
28L DME IMTB 110.70 MHz 18 nm / 33 km - - - 155 ft / 47 m (AMSL)

Popular Alternatives